Time;durP1;ratioP1;P1;durP2;ratioP2;P2;SDS_P1;SDS_P2;PMS_P1;PMS_P2;Temp;Humidity;BMP_temperature;BMP_pressure;BME280_temperature;BME280_humidity;BME280_pressure;Samples;Min_cycle;Max_cycle;Signal;HPM_P1;HPM_P2
2022/05/20 00:00:34;;;;;;;31.30;26.27;;;15.60;99.90;;;;;;5071136;28;20462;-68
2022/05/20 00:03:01;;;;;;;29.60;26.17;;;15.60;99.90;;;;;;5075680;28;20468;-67
2022/05/20 00:05:29;;;;;;;29.83;26.20;;;15.50;99.90;;;;;;5072448;28;20845;-67
2022/05/20 00:07:56;;;;;;;32.40;27.87;;;15.60;99.90;;;;;;5077400;28;20490;-70
2022/05/20 00:10:24;;;;;;;32.07;27.23;;;15.60;99.90;;;;;;5070029;28;20973;-67
2022/05/20 00:12:51;;;;;;;31.50;28.10;;;15.50;99.90;;;;;;5081328;28;20466;-67
2022/05/20 00:15:26;;;;;;;35.77;28.47;;;15.50;99.90;;;;;;5079707;28;20469;-68
2022/05/20 00:17:53;;;;;;;35.63;26.60;;;15.40;99.90;;;;;;5075927;28;20464;-67
2022/05/20 00:20:22;;;;;;;31.40;26.87;;;15.40;99.90;;;;;;5071540;28;20470;-66
2022/05/20 00:22:49;;;;;;;35.83;29.90;;;15.30;99.90;;;;;;5077052;28;20464;-68
2022/05/20 00:28:03;;;;;;;36.60;30.10;;;15.40;99.90;;;;;;5078717;28;21162;-67
2022/05/20 00:30:31;;;;;;;38.10;30.73;;;15.40;99.90;;;;;;5070790;28;20458;-67
2022/05/20 00:32:58;;;;;;;39.10;30.50;;;15.40;99.90;;;;;;5070170;28;20469;-67
2022/05/20 00:35:26;;;;;;;41.63;31.33;;;15.50;99.90;;;;;;5079720;28;20467;-67
2022/05/20 00:37:53;;;;;;;38.57;30.37;;;15.50;99.90;;;;;;5082187;28;20469;-68
2022/05/20 00:40:22;;;;;;;38.83;30.77;;;15.50;99.90;;;;;;5073891;28;20462;-67
2022/05/20 00:42:50;;;;;;;37.60;29.80;;;15.50;99.90;;;;;;5077974;28;20464;-67
2022/05/20 00:45:18;;;;;;;47.10;32.60;;;15.50;99.90;;;;;;5072718;28;20577;-67
2022/05/20 00:47:46;;;;;;;36.73;31.07;;;15.50;99.90;;;;;;5074570;28;20496;-67
2022/05/20 00:50:16;;;;;;;35.87;26.80;;;15.60;99.90;;;;;;5076153;28;20486;-68
2022/05/20 00:52:47;;;;;;;42.03;29.93;;;15.70;99.90;;;;;;5080228;28;20470;-68
2022/05/20 00:55:18;;;;;;;33.07;27.87;;;15.70;99.90;;;;;;5078053;28;20737;-68
2022/05/20 00:57:49;;;;;;;33.60;28.33;;;15.80;99.90;;;;;;5083644;28;21007;-67
2022/05/20 01:00:19;;;;;;;36.67;29.63;;;15.80;99.90;;;;;;5072872;28;20465;-68
2022/05/20 01:02:51;;;;;;;38.00;28.63;;;15.80;99.90;;;;;;5071631;28;20558;-67
2022/05/20 01:05:22;;;;;;;31.27;26.47;;;15.90;99.90;;;;;;5066349;28;20474;-67
2022/05/20 01:07:50;;;;;;;33.17;26.07;;;15.90;99.90;;;;;;5075570;28;20861;-67
2022/05/20 01:10:17;;;;;;;37.10;28.50;;;16.00;99.90;;;;;;5075406;28;20462;-67
2022/05/20 01:12:44;;;;;;;35.60;29.13;;;16.00;99.90;;;;;;5074324;28;20463;-68
2022/05/20 01:15:12;;;;;;;34.57;27.90;;;16.10;99.90;;;;;;5073924;28;20470;-67
2022/05/20 01:17:40;;;;;;;36.70;30.10;;;16.10;99.90;;;;;;5072506;28;20996;-67
2022/05/20 01:20:13;;;;;;;33.93;30.10;;;16.10;99.90;;;;;;5078575;28;20534;-68
2022/05/20 01:22:49;;;;;;;39.07;30.40;;;16.00;99.90;;;;;;5080199;28;20461;-67
2022/05/20 01:25:17;;;;;;;37.23;27.67;;;15.90;99.90;;;;;;5069037;28;20768;-67
2022/05/20 01:27:43;;;;;;;35.00;28.70;;;15.80;99.90;;;;;;5072343;28;20539;-67
2022/05/20 01:30:12;;;;;;;38.43;29.30;;;15.70;99.90;;;;;;5074369;28;20475;-67
2022/05/20 01:32:40;;;;;;;43.30;27.53;;;15.60;99.90;;;;;;5077264;28;21109;-67
2022/05/20 01:35:12;;;;;;;43.63;31.07;;;15.50;99.90;;;;;;5072783;28;20458;-68
2022/05/20 01:37:38;;;;;;;40.83;31.80;;;15.40;99.90;;;;;;5077789;28;20839;-67
2022/05/20 01:40:08;;;;;;;35.77;30.70;;;15.40;99.90;;;;;;5074995;28;20474;-67
2022/05/20 01:42:41;;;;;;;39.43;31.80;;;15.40;99.90;;;;;;5064736;28;20469;-67
2022/05/20 01:45:13;;;;;;;41.03;29.93;;;15.30;99.90;;;;;;5069373;28;20513;-67
2022/05/20 01:47:46;;;;;;;39.07;31.40;;;15.20;99.90;;;;;;5072430;28;20570;-67
2022/05/20 01:50:17;;;;;;;36.57;32.30;;;15.20;99.90;;;;;;5073723;28;20467;-67
2022/05/20 01:52:52;;;;;;;45.97;32.80;;;15.10;99.90;;;;;;5073186;28;20946;-68
2022/05/20 01:55:26;;;;;;;44.60;36.20;;;15.00;99.90;;;;;;5078214;28;20470;-68
2022/05/20 01:57:59;;;;;;;45.67;34.70;;;15.00;99.90;;;;;;5076543;28;20454;-67
2022/05/20 02:00:29;;;;;;;42.17;32.20;;;14.90;99.90;;;;;;5077723;28;20465;-67
2022/05/20 02:03:01;;;;;;;47.10;35.63;;;14.80;99.90;;;;;;5074504;28;20811;-68
2022/05/20 02:05:32;;;;;;;46.00;35.97;;;14.70;99.90;;;;;;5077533;28;20840;-68
2022/05/20 02:08:04;;;;;;;41.00;34.37;;;14.60;99.90;;;;;;5073216;28;21027;-67
2022/05/20 02:10:37;;;;;;;42.23;34.37;;;14.60;99.90;;;;;;5074528;28;20548;-67
2022/05/20 02:13:08;;;;;;;45.50;36.23;;;14.50;99.90;;;;;;5074503;28;20469;-67
2022/05/20 02:15:41;;;;;;;47.80;37.47;;;14.50;99.90;;;;;;5070160;28;20504;-67
2022/05/20 02:18:12;;;;;;;50.27;36.57;;;14.60;99.90;;;;;;5068354;28;20465;-67
2022/05/20 02:20:43;;;;;;;49.33;37.43;;;14.70;99.90;;;;;;5073207;28;20816;-66
2022/05/20 02:23:15;;;;;;;49.70;37.47;;;14.70;99.90;;;;;;5074556;28;20960;-67
2022/05/20 02:25:49;;;;;;;56.10;38.70;;;14.70;99.90;;;;;;5078845;28;20465;-67
2022/05/20 02:28:20;;;;;;;39.97;35.70;;;14.90;99.90;;;;;;5081856;28;20976;-67
2022/05/20 02:30:47;;;;;;;40.67;34.93;;;15.00;99.90;;;;;;5081748;28;21077;-66
2022/05/20 02:33:16;;;;;;;41.13;35.43;;;15.10;99.90;;;;;;5078447;28;20880;-66
2022/05/20 02:35:44;;;;;;;42.80;33.87;;;15.10;99.90;;;;;;5074383;28;20451;-67
2022/05/20 02:38:13;;;;;;;44.07;34.97;;;15.20;99.90;;;;;;5082464;28;20458;-67
2022/05/20 02:40:44;;;;;;;43.53;34.53;;;15.20;99.90;;;;;;5078189;28;20462;-67
2022/05/20 02:43:12;;;;;;;43.53;36.67;;;15.20;99.90;;;;;;5079682;28;20521;-66
2022/05/20 02:45:42;;;;;;;40.07;35.60;;;15.30;99.90;;;;;;5074309;28;20494;-68
2022/05/20 02:48:09;;;;;;;44.73;35.23;;;15.30;99.90;;;;;;5080572;28;20500;-67
2022/05/20 02:50:36;;;;;;;41.33;34.07;;;15.30;99.90;;;;;;5077433;28;20826;-67
2022/05/20 02:53:03;;;;;;;42.67;35.57;;;15.30;99.90;;;;;;5077162;28;20460;-67
2022/05/20 02:55:30;;;;;;;46.13;36.60;;;15.20;99.90;;;;;;5076379;28;20864;-66
2022/05/20 02:57:58;;;;;;;48.30;33.27;;;15.20;99.90;;;;;;5079719;28;20989;-67
2022/05/20 03:05:56;;;;;;;51.60;38.20;;;15.20;99.90;;;;;;5081153;28;20519;-67
2022/05/20 03:08:24;;;;;;;47.00;37.30;;;15.20;99.90;;;;;;5080786;28;20589;-67
2022/05/20 03:10:51;;;;;;;46.63;36.63;;;15.20;99.90;;;;;;5081742;28;20491;-67
2022/05/20 03:13:19;;;;;;;47.33;34.93;;;15.20;99.90;;;;;;5078261;28;21067;-68
2022/05/20 03:15:47;;;;;;;43.90;36.10;;;15.20;99.90;;;;;;5077643;28;20519;-67
2022/05/20 03:18:15;;;;;;;48.20;37.10;;;15.00;99.90;;;;;;5074189;28;20459;-67
2022/05/20 03:20:42;;;;;;;40.00;34.60;;;15.00;99.90;;;;;;5080671;28;20541;-67
2022/05/20 03:23:10;;;;;;;44.10;36.80;;;15.00;99.90;;;;;;5080897;28;20465;-68
2022/05/20 03:25:37;;;;;;;45.60;34.80;;;15.10;99.90;;;;;;5082983;28;21008;-67
2022/05/20 03:28:05;;;;;;;53.20;36.20;;;15.20;99.90;;;;;;5072421;28;20478;-67
2022/05/20 03:30:31;;;;;;;41.67;34.43;;;15.20;99.90;;;;;;5079699;28;20457;-67
2022/05/20 03:33:00;;;;;;;42.63;35.10;;;15.20;99.90;;;;;;5076646;28;20473;-68
2022/05/20 03:35:26;;;;;;;42.97;35.00;;;15.20;99.90;;;;;;5075447;28;20544;-67
2022/05/20 03:37:54;;;;;;;45.20;35.47;;;15.20;99.90;;;;;;5085405;28;20546;-67
2022/05/20 03:40:21;;;;;;;48.10;39.37;;;15.20;99.90;;;;;;5076777;28;20519;-67
2022/05/20 03:42:48;;;;;;;58.10;37.67;;;15.30;99.90;;;;;;5077096;28;20954;-67
2022/05/20 03:45:15;;;;;;;44.63;36.57;;;15.40;99.90;;;;;;5073445;28;20801;-68
2022/05/20 03:47:42;;;;;;;43.43;35.73;;;15.50;99.90;;;;;;5079047;28;20489;-66
2022/05/20 03:50:12;;;;;;;45.00;35.43;;;15.50;99.90;;;;;;5083634;28;21127;-67
2022/05/20 03:52:40;;;;;;;59.37;35.03;;;15.40;99.90;;;;;;5071526;28;20477;-67
2022/05/20 03:55:09;;;;;;;52.13;35.50;;;15.30;99.90;;;;;;5075571;28;20469;-67
2022/05/20 03:57:36;;;;;;;50.33;36.40;;;15.30;99.90;;;;;;5075803;28;20458;-68
2022/05/20 04:00:04;;;;;;;47.77;36.60;;;15.20;99.90;;;;;;5079677;28;20459;-67
2022/05/20 04:02:30;;;;;;;48.50;36.53;;;15.20;99.90;;;;;;5051844;28;20478;-67
2022/05/20 04:04:56;;;;;;;51.20;37.47;;;15.10;99.90;;;;;;5046033;28;21387;-66
2022/05/20 04:07:27;;;;;;;57.50;38.70;;;15.30;99.90;;;;;;5045462;28;20211;-67
2022/05/20 04:09:54;;;;;;;51.23;39.23;;;15.50;99.90;;;;;;5045955;28;20463;-68
2022/05/20 04:12:26;;;;;;;47.80;37.80;;;15.60;99.90;;;;;;5045739;28;20471;-67
2022/05/20 04:14:53;;;;;;;46.87;36.50;;;15.70;99.90;;;;;;5046013;28;21101;-67
2022/05/20 04:17:20;;;;;;;56.83;40.63;;;15.90;99.90;;;;;;5046432;28;21100;-67
2022/05/20 04:19:48;;;;;;;48.10;37.50;;;16.10;99.90;;;;;;5045806;28;20858;-67
2022/05/20 04:22:17;;;;;;;47.97;35.43;;;16.20;99.90;;;;;;5045938;28;20889;-68
2022/05/20 04:24:46;;;;;;;53.43;37.70;;;16.30;99.90;;;;;;5045683;28;21012;-68
2022/05/20 04:27:12;;;;;;;48.00;34.00;;;16.40;99.90;;;;;;5045968;28;20568;-67
2022/05/20 04:29:39;;;;;;;50.13;35.80;;;16.40;99.90;;;;;;5045506;28;20579;-67
2022/05/20 04:32:07;;;;;;;52.80;38.80;;;16.40;99.90;;;;;;5046127;28;20463;-67
2022/05/20 04:34:34;;;;;;;50.67;38.47;;;16.40;99.90;;;;;;5044522;28;20457;-67
2022/05/20 04:37:01;;;;;;;41.37;32.77;;;16.40;99.90;;;;;;5045380;28;20470;-67
2022/05/20 04:39:27;;;;;;;44.50;31.83;;;16.40;99.90;;;;;;5045490;28;20473;-68
2022/05/20 04:47:28;;;;;;;40.73;33.27;;;16.80;99.90;;;;;;5044182;28;21326;-67
2022/05/20 04:49:55;;;;;;;52.47;36.37;;;16.80;99.90;;;;;;5042919;28;20492;-68
2022/05/20 04:52:23;;;;;;;46.87;35.50;;;16.80;99.90;;;;;;5044399;28;20503;-67
2022/05/20 04:54:52;;;;;;;51.83;37.53;;;16.80;99.90;;;;;;5043662;28;20875;-67
2022/05/20 04:57:26;;;;;;;47.40;37.73;;;17.00;99.90;;;;;;5043128;28;20480;-68
2022/05/20 04:59:55;;;;;;;48.80;38.50;;;17.20;99.90;;;;;;5057784;28;21925;-68
2022/05/20 05:02:22;;;;;;;48.00;37.40;;;17.20;99.90;;;;;;5076769;28;20936;-68
2022/05/20 05:04:49;;;;;;;48.43;39.90;;;17.30;99.90;;;;;;5071624;28;20481;-67
2022/05/20 05:07:16;;;;;;;51.77;38.10;;;17.50;99.90;;;;;;5075619;28;20465;-67
2022/05/20 05:09:44;;;;;;;47.80;36.93;;;17.50;99.90;;;;;;5044033;28;20841;-69
2022/05/20 05:12:12;;;;;;;48.57;38.57;;;17.70;99.90;;;;;;5043289;28;20478;-68
2022/05/20 05:14:42;;;;;;;43.70;37.80;;;17.70;99.90;;;;;;5043801;28;20469;-68
2022/05/20 05:17:11;;;;;;;54.37;36.20;;;17.60;99.90;;;;;;5044512;28;20917;-67
2022/05/20 05:19:39;;;;;;;49.53;38.60;;;17.70;99.90;;;;;;5042629;28;20916;-69
2022/05/20 05:22:08;;;;;;;42.77;37.00;;;17.80;99.90;;;;;;5042469;28;20480;-70
2022/05/20 05:24:37;;;;;;;52.40;36.93;;;17.80;99.90;;;;;;5042467;28;20989;-68
2022/05/20 05:27:05;;;;;;;42.20;34.70;;;17.90;99.90;;;;;;5043217;28;21029;-68
2022/05/20 05:29:34;;;;;;;42.43;34.37;;;17.90;99.90;;;;;;5053393;28;20495;-68
2022/05/20 05:32:02;;;;;;;46.97;37.20;;;18.00;99.90;;;;;;5068468;28;20721;-69
2022/05/20 05:34:29;;;;;;;40.07;35.77;;;18.00;99.90;;;;;;5044163;28;20472;-68
2022/05/20 05:36:56;;;;;;;46.67;36.30;;;18.20;99.90;;;;;;5044422;28;20973;-68
2022/05/20 05:39:24;;;;;;;47.33;37.13;;;18.10;99.90;;;;;;5045231;28;20824;-67
2022/05/20 05:41:50;;;;;;;39.60;35.40;;;18.20;99.90;;;;;;5045300;28;20462;-69
2022/05/20 05:44:18;;;;;;;41.57;34.53;;;18.30;99.90;;;;;;5074071;28;20531;-68
2022/05/20 05:46:45;;;;;;;43.13;35.50;;;18.40;99.90;;;;;;5054881;28;20967;-68
2022/05/20 05:49:13;;;;;;;37.67;33.57;;;18.40;99.90;;;;;;5057079;28;20498;-70
2022/05/20 05:51:40;;;;;;;38.13;31.90;;;18.60;99.90;;;;;;5026673;28;20468;-69
2022/05/20 05:54:07;;;;;;;35.73;32.00;;;18.50;99.90;;;;;;5023996;28;20953;-69
2022/05/20 05:56:36;;;;;;;36.93;32.50;;;18.70;99.90;;;;;;5025220;28;22587;-68
2022/05/20 05:59:02;;;;;;;36.30;32.40;;;18.60;99.90;;;;;;5024457;28;20545;-70
2022/05/20 06:01:29;;;;;;;36.50;32.90;;;18.70;99.90;;;;;;5021900;28;21011;-68
2022/05/20 06:03:56;;;;;;;38.43;32.13;;;18.70;99.90;;;;;;5024106;28;20471;-67
2022/05/20 06:06:24;;;;;;;36.80;32.93;;;18.40;99.90;;;;;;5023253;28;20464;-66
2022/05/20 06:08:51;;;;;;;37.00;32.80;;;18.40;99.90;;;;;;5025833;28;20755;-68
2022/05/20 06:11:18;;;;;;;36.43;31.83;;;18.70;99.90;;;;;;5026061;28;20472;-68
2022/05/20 06:13:45;;;;;;;34.57;30.90;;;18.80;99.90;;;;;;5026057;28;20462;-70
2022/05/20 06:16:19;;;;;;;40.30;32.63;;;19.10;99.90;;;;;;5025263;28;20472;-68
2022/05/20 06:18:46;;;;;;;37.43;29.90;;;19.30;99.90;;;;;;5028194;28;20467;-68
2022/05/20 06:21:12;;;;;;;37.00;29.43;;;19.40;99.90;;;;;;5028062;28;20474;-67
2022/05/20 06:23:41;;;;;;;36.13;32.37;;;19.80;99.90;;;;;;5029468;28;20475;-66
2022/05/20 06:26:08;;;;;;;37.37;32.17;;;19.90;99.90;;;;;;5030907;28;20471;-68
2022/05/20 06:28:35;;;;;;;37.10;31.70;;;20.00;99.90;;;;;;5030075;28;20584;-67
2022/05/20 06:31:02;;;;;;;36.83;32.90;;;20.30;99.90;;;;;;5029995;28;20468;-70
2022/05/20 06:33:29;;;;;;;50.73;34.20;;;20.40;99.90;;;;;;5030605;28;20501;-69
2022/05/20 06:41:26;;;;;;;43.83;33.67;;;21.00;99.90;;;;;;5055683;28;20603;-70
2022/05/20 06:43:53;;;;;;;40.33;33.17;;;21.40;99.90;;;;;;5044671;28;20568;-68
2022/05/20 06:46:21;;;;;;;37.97;33.87;;;21.60;99.90;;;;;;5046060;28;20470;-68
2022/05/20 06:48:50;;;;;;;40.73;34.03;;;21.60;99.90;;;;;;5045393;28;20580;-68
2022/05/20 06:51:18;;;;;;;44.40;33.73;;;21.50;99.90;;;;;;5045719;28;20513;-68
2022/05/20 06:53:47;;;;;;;36.27;32.57;;;21.70;99.90;;;;;;5045214;28;20462;-68
2022/05/20 06:56:15;;;;;;;42.90;34.97;;;21.80;99.90;;;;;;5045582;28;20458;-68
2022/05/20 06:58:42;;;;;;;40.10;35.70;;;21.70;99.90;;;;;;5046256;28;20843;-67
2022/05/20 07:01:09;;;;;;;39.80;33.27;;;21.60;99.90;;;;;;5045089;28;20469;-67
2022/05/20 07:03:36;;;;;;;43.20;32.87;;;21.70;99.90;;;;;;5045830;28;20474;-68
2022/05/20 07:06:04;;;;;;;45.60;35.07;;;21.80;99.90;;;;;;5046876;28;20899;-69
2022/05/20 07:08:32;;;;;;;44.93;36.17;;;21.80;99.90;;;;;;5047541;28;20489;-67
2022/05/20 07:11:02;;;;;;;48.63;36.50;;;21.60;99.90;;;;;;5045944;28;20463;-70
2022/05/20 07:13:28;;;;;;;40.80;34.00;;;21.60;99.90;;;;;;5047610;28;20467;-69
2022/05/20 07:15:55;;;;;;;59.37;35.87;;;21.70;99.90;;;;;;5047476;28;20469;-67
2022/05/20 07:18:22;;;;;;;40.97;35.27;;;21.80;99.90;;;;;;5046517;28;20459;-67
2022/05/20 07:20:49;;;;;;;37.43;33.47;;;21.80;99.90;;;;;;5045647;28;20459;-68
2022/05/20 07:23:16;;;;;;;42.97;35.50;;;22.00;99.90;;;;;;5046163;28;20460;-67
2022/05/20 07:25:43;;;;;;;45.60;37.70;;;22.10;99.90;;;;;;5047207;28;20466;-70
2022/05/20 07:28:11;;;;;;;41.90;35.87;;;22.50;99.90;;;;;;5045000;28;20454;-67
2022/05/20 07:30:38;;;;;;;44.57;37.70;;;22.40;99.90;;;;;;5045381;28;20493;-67
2022/05/20 07:33:06;;;;;;;39.50;35.17;;;22.50;99.90;;;;;;5047650;28;20486;-68
2022/05/20 07:35:33;;;;;;;44.07;38.70;;;22.60;99.90;;;;;;5047200;28;20459;-69
2022/05/20 07:38:00;;;;;;;42.00;32.90;;;22.50;99.90;;;;;;5046015;28;20471;-68
2022/05/20 07:40:27;;;;;;;48.70;37.80;;;22.30;99.90;;;;;;5045203;28;21040;-68
2022/05/20 07:42:54;;;;;;;50.03;40.23;;;22.40;99.90;;;;;;5046980;28;20470;-67
2022/05/20 07:45:22;;;;;;;43.53;37.00;;;22.50;99.90;;;;;;5046693;28;21139;-66
2022/05/20 07:47:49;;;;;;;46.47;38.83;;;22.70;99.90;;;;;;5046566;28;20504;-67
2022/05/20 07:50:17;;;;;;;49.83;39.80;;;22.90;99.90;;;;;;5046050;28;21007;-67
2022/05/20 07:55:36;;;;;;;51.93;37.90;;;22.80;99.90;;;;;;5046383;28;20474;-67
2022/05/20 07:58:06;;;;;;;41.13;32.53;;;23.10;99.90;;;;;;5047214;28;21017;-67
2022/05/20 08:00:35;;;;;;;45.00;34.60;;;23.70;99.90;;;;;;5045325;28;20712;-67
2022/05/20 08:03:02;;;;;;;46.27;38.43;;;24.10;99.90;;;;;;5046291;28;20493;-66
2022/05/20 08:05:30;;;;;;;40.90;35.10;;;24.70;99.90;;;;;;5045941;28;20467;-67
2022/05/20 08:08:00;;;;;;;43.30;38.33;;;24.80;99.90;;;;;;5045776;28;20566;-70
2022/05/20 08:10:29;;;;;;;46.63;37.90;;;24.80;99.90;;;;;;5045519;28;21164;-66
2022/05/20 08:12:56;;;;;;;37.73;33.87;;;25.00;99.90;;;;;;5045270;28;20476;-69
2022/05/20 08:15:24;;;;;;;46.17;38.10;;;25.50;99.90;;;;;;5045857;28;20467;-69
2022/05/20 08:17:52;;;;;;;42.97;36.67;;;25.30;99.90;;;;;;5045763;28;20462;-70
2022/05/20 08:20:25;;;;;;;42.00;35.77;;;26.30;99.90;;;;;;5045599;28;20490;-68
2022/05/20 08:22:53;;;;;;;38.40;34.20;;;27.00;99.90;;;;;;5045790;28;21031;-67
2022/05/20 08:25:20;;;;;;;42.43;37.90;;;27.50;99.90;;;;;;5044820;28;20834;-67
2022/05/20 08:27:47;;;;;;;40.00;35.83;;;26.90;99.90;;;;;;5045484;28;20476;-67
2022/05/20 08:30:17;;;;;;;40.40;35.87;;;27.30;99.90;;;;;;5045364;28;20985;-66
2022/05/20 08:32:44;;;;;;;45.70;36.57;;;27.30;99.90;;;;;;5044539;28;20459;-68
2022/05/20 08:35:13;;;;;;;38.53;34.80;;;27.10;99.90;;;;;;5046030;28;20502;-68
2022/05/20 08:37:42;;;;;;;40.20;35.33;;;27.40;99.90;;;;;;5045122;28;20605;-67
2022/05/20 08:40:11;;;;;;;37.83;33.97;;;27.90;99.90;;;;;;5045576;28;22457;-66
2022/05/20 08:42:38;;;;;;;35.77;32.23;;;28.80;99.90;;;;;;5045131;28;20544;-67
2022/05/20 08:45:07;;;;;;;35.00;31.73;;;28.60;99.90;;;;;;5044645;28;20977;-68
2022/05/20 08:47:41;;;;;;;36.07;32.43;;;28.90;99.90;;;;;;5041521;28;20480;-67
2022/05/20 08:50:13;;;;;;;38.23;34.53;;;29.00;99.90;;;;;;5041384;28;20999;-66
2022/05/20 08:52:40;;;;;;;37.00;33.80;;;28.40;99.90;;;;;;5041218;28;20723;-68
2022/05/20 08:55:08;;;;;;;38.33;34.73;;;29.00;99.90;;;;;;5042786;28;20481;-66
2022/05/20 08:57:36;;;;;;;36.27;32.93;;;29.30;99.90;;;;;;5042945;28;20477;-69
2022/05/20 09:00:05;;;;;;;37.50;33.87;;;29.80;99.90;;;;;;5042648;28;20458;-66
2022/05/20 09:02:32;;;;;;;41.30;37.30;;;30.20;99.90;;;;;;5041497;28;20699;-67
2022/05/20 09:04:59;;;;;;;35.63;32.20;;;30.70;99.90;;;;;;5042290;28;20487;-66
2022/05/20 09:07:48;;;;;;;36.33;33.33;;;30.30;99.90;;;;;;5042135;28;20793;-66
2022/05/20 09:10:15;;;;;;;40.40;36.70;;;29.50;99.90;;;;;;5041833;28;21234;-68
2022/05/20 09:12:42;;;;;;;42.73;39.03;;;29.10;99.90;;;;;;5042348;28;20544;-68
2022/05/20 09:18:04;;;;;;;40.80;37.00;;;30.10;99.90;;;;;;5042427;28;20461;-66
2022/05/20 09:20:31;;;;;;;42.60;38.80;;;30.60;99.90;;;;;;5043565;28;20459;-67
2022/05/20 09:23:03;;;;;;;43.50;39.50;;;30.20;99.90;;;;;;5042056;28;20463;-67
2022/05/20 09:25:32;;;;;;;43.97;39.80;;;30.80;99.90;;;;;;5042808;28;20481;-69
2022/05/20 09:28:17;;;;;;;45.07;40.77;;;31.20;99.90;;;;;;5042894;28;20475;-66
2022/05/20 09:30:48;;;;;;;43.90;39.63;;;30.30;99.90;;;;;;5042847;28;21008;-66
2022/05/20 09:33:19;;;;;;;40.87;37.03;;;30.00;99.90;;;;;;5042977;28;21023;-67
2022/05/20 09:35:50;;;;;;;42.97;39.33;;;30.30;99.90;;;;;;5042045;28;20477;-67
2022/05/20 09:38:37;;;;;;;43.03;39.20;;;30.40;99.90;;;;;;5043505;28;21283;-68
2022/05/20 09:41:16;;;;;;;43.63;39.47;;;30.60;99.90;;;;;;5042361;28;20458;-66
2022/05/20 09:43:45;;;;;;;41.53;37.33;;;31.60;99.90;;;;;;5042790;28;20501;-66
2022/05/20 09:46:30;;;;;;;38.93;35.77;;;32.00;99.90;;;;;;5043186;28;20471;-67
2022/05/20 09:49:02;;;;;;;45.67;41.57;;;32.00;99.70;;;;;;5040994;28;20887;-67
2022/05/20 09:51:36;;;;;;;49.20;44.57;;;31.20;99.90;;;;;;5042112;28;20482;-66
2022/05/20 09:54:13;;;;;;;45.23;41.10;;;31.70;99.90;;;;;;5042888;28;20458;-68
2022/05/20 09:56:44;;;;;;;50.00;44.70;;;32.50;98.90;;;;;;5041853;28;20464;-69
2022/05/20 09:59:28;;;;;;;47.33;43.10;;;32.40;98.20;;;;;;5040541;28;20610;-68
2022/05/20 10:02:00;;;;;;;48.50;43.93;;;31.80;99.40;;;;;;5042509;28;20469;-66
2022/05/20 10:04:38;;;;;;;49.37;44.50;;;31.50;99.90;;;;;;5042199;28;20489;-66
2022/05/20 10:07:13;;;;;;;51.57;46.10;;;31.60;99.90;;;;;;5042129;28;20462;-67
2022/05/20 10:09:48;;;;;;;50.87;45.83;;;31.70;99.60;;;;;;5042597;28;20498;-67
2022/05/20 10:12:25;;;;;;;46.90;42.70;;;31.30;99.90;;;;;;5042625;28;20536;-68
2022/05/20 10:14:57;;;;;;;49.70;44.43;;;31.50;99.90;;;;;;5043240;28;20465;-68
2022/05/20 10:17:44;;;;;;;49.47;44.23;;;31.60;99.70;;;;;;5043716;28;20687;-66
2022/05/20 10:20:17;;;;;;;43.00;39.07;;;30.90;99.90;;;;;;5042635;28;20555;-67
2022/05/20 10:22:54;;;;;;;46.97;42.77;;;31.20;99.90;;;;;;5042461;28;20459;-66
2022/05/20 10:25:30;;;;;;;48.67;44.47;;;31.30;99.80;;;;;;5042239;28;20462;-67
2022/05/20 10:28:05;;;;;;;48.93;44.23;;;31.80;98.60;;;;;;5042478;28;20480;-67
2022/05/20 10:33:26;;;;;;;49.00;44.47;;;32.10;99.50;;;;;;5042486;28;21055;-66
2022/05/20 10:36:08;;;;;;;49.77;45.30;;;33.00;98.20;;;;;;5041820;28;20543;-67
2022/05/20 10:39:07;;;;;;;46.47;42.40;;;32.80;98.50;;;;;;5041391;28;20933;-65
2022/05/20 10:41:50;;;;;;;42.50;38.63;;;32.80;98.80;;;;;;4986109;28;20463;-66
2022/05/20 10:50:34;;;;;;;46.30;42.20;;;33.30;97.40;;;;;;4985893;28;20571;-66
2022/05/20 10:53:12;;;;;;;43.93;39.93;;;33.90;95.90;;;;;;5043663;28;21008;-67
2022/05/20 10:55:55;;;;;;;35.30;32.33;;;34.20;95.50;;;;;;5071929;28;20462;-66
2022/05/20 10:58:49;;;;;;;36.00;32.80;;;34.40;95.80;;;;;;5048421;28;20466;-67
2022/05/20 11:01:20;;;;;;;37.90;34.20;;;34.80;94.50;;;;;;5045633;28;20466;-66
2022/05/20 11:04:12;;;;;;;36.80;33.60;;;35.10;93.70;;;;;;5045629;28;20458;-67
2022/05/20 11:07:24;;;;;;;36.17;33.17;;;34.90;93.00;;;;;;5007588;28;21107;-66
2022/05/20 11:10:01;;;;;;;35.83;32.73;;;35.20;93.00;;;;;;5044797;28;20498;-66
2022/05/20 11:12:39;;;;;;;31.47;29.07;;;35.10;93.10;;;;;;5044449;28;20957;-66
2022/05/20 11:15:27;;;;;;;32.83;29.90;;;35.40;92.40;;;;;;5046847;28;20533;-67
2022/05/20 11:18:25;;;;;;;36.73;32.57;;;35.00;91.80;;;;;;5045630;28;20459;-68
2022/05/20 11:21:18;;;;;;;32.17;29.13;;;34.70;91.80;;;;;;5042209;28;21127;-67
2022/05/20 11:24:10;;;;;;;29.83;27.40;;;34.60;92.10;;;;;;5045752;28;20475;-68
2022/05/20 11:26:46;;;;;;;33.57;30.90;;;34.90;92.00;;;;;;5041049;28;21137;-66
2022/05/20 11:29:30;;;;;;;30.40;28.03;;;35.00;91.40;;;;;;5044480;28;20466;-67
2022/05/20 11:32:03;;;;;;;33.30;30.33;;;35.00;91.80;;;;;;5045790;28;20491;-67
2022/05/20 11:34:50;;;;;;;32.50;29.90;;;34.00;92.40;;;;;;5045920;28;20477;-67
2022/05/20 11:37:37;;;;;;;32.23;29.20;;;34.60;92.50;;;;;;5046881;28;20461;-67
2022/05/20 11:40:42;;;;;;;32.17;29.47;;;35.00;92.20;;;;;;5051500;28;20969;-66
2022/05/20 11:43:24;;;;;;;31.80;29.10;;;34.70;92.00;;;;;;5073305;28;20470;-68
2022/05/20 11:46:00;;;;;;;32.87;29.93;;;33.70;93.10;;;;;;5079524;28;20558;-66
2022/05/20 11:49:00;;;;;;;31.27;28.37;;;33.30;93.50;;;;;;5069243;28;20487;-66
2022/05/20 11:51:51;;;;;;;32.03;29.30;;;33.30;93.70;;;;;;5045247;28;20490;-67
2022/05/20 11:54:25;;;;;;;33.43;30.50;;;32.80;94.50;;;;;;5043610;28;20969;-67
2022/05/20 11:56:57;;;;;;;30.53;28.10;;;31.90;95.40;;;;;;5044140;28;20471;-67
2022/05/20 11:59:28;;;;;;;34.57;31.10;;;31.80;95.80;;;;;;5043677;28;20471;-67
2022/05/20 12:01:59;;;;;;;32.17;28.00;;;31.10;96.80;;;;;;5042497;28;20455;-66
2022/05/20 12:04:34;;;;;;;32.90;28.07;;;30.70;97.60;;;;;;5041068;28;20773;-68
2022/05/20 12:07:05;;;;;;;35.70;27.23;;;30.10;98.80;;;;;;5038358;28;20739;-66
2022/05/20 12:09:37;;;;;;;37.30;28.33;;;29.50;99.90;;;;;;5043060;28;20471;-68
2022/05/20 12:12:17;;;;;;;29.20;26.40;;;28.80;99.90;;;;;;5044861;28;20499;-67
2022/05/20 12:15:03;;;;;;;31.37;28.37;;;28.50;99.90;;;;;;5038349;28;20458;-66
2022/05/20 12:17:31;;;;;;;34.30;31.00;;;28.00;99.90;;;;;;5043709;28;20459;-67
2022/05/20 12:26:19;;;;;;;63.50;54.97;;;25.40;99.90;;;;;;5042068;28;20557;-67
2022/05/20 12:28:46;;;;;;;70.00;53.90;;;24.50;99.90;;;;;;5042297;28;20458;-67
2022/05/20 12:31:23;;;;;;;66.33;53.40;;;24.00;99.90;;;;;;5041199;28;20503;-66
2022/05/20 12:33:51;;;;;;;56.93;50.80;;;23.70;99.90;;;;;;5030956;28;20924;-67
2022/05/20 12:36:35;;;;;;;63.13;50.07;;;23.30;99.90;;;;;;5033321;28;21088;-68
2022/05/20 12:39:20;;;;;;;76.97;50.67;;;23.10;99.90;;;;;;5040604;28;20829;-68
2022/05/20 12:42:00;;;;;;;54.57;48.67;;;22.70;99.90;;;;;;5033962;28;20470;-68
2022/05/20 12:44:36;;;;;;;257.53;53.27;;;22.30;99.90;;;;;;5040580;28;20490;-68
2022/05/20 12:47:20;;;;;;;87.57;47.70;;;22.20;99.90;;;;;;5040541;28;20467;-68
2022/05/20 12:49:59;;;;;;;182.07;48.77;;;21.90;99.90;;;;;;5040047;28;21097;-68
2022/05/20 12:52:31;;;;;;;20.60;19.43;;;21.60;99.90;;;;;;5038221;28;20459;-73
2022/05/20 12:55:00;;;;;;;64.90;20.97;;;20.90;99.90;;;;;;5038470;28;20906;-70
2022/05/20 12:57:30;;;;;;;209.53;22.60;;;19.80;99.90;;;;;;5040767;28;20450;-71
2022/05/20 13:00:00;;;;;;;135.70;18.43;;;18.90;99.90;;;;;;5039331;28;20493;-71
2022/05/20 13:02:33;;;;;;;17.00;12.77;;;18.40;99.90;;;;;;5040409;28;20532;-69
2022/05/20 13:05:04;;;;;;;15.83;14.10;;;18.60;99.90;;;;;;5041594;28;20486;-69
2022/05/20 13:07:34;;;;;;;20.60;17.13;;;19.00;99.90;;;;;;5040548;28;21287;-69
2022/05/20 13:10:01;;;;;;;36.00;19.47;;;19.20;99.90;;;;;;5039702;28;20470;-69
2022/05/20 13:12:27;;;;;;;21.73;19.13;;;19.40;99.90;;;;;;5040797;28;20604;-68
2022/05/20 13:14:59;;;;;;;21.03;18.93;;;19.80;99.90;;;;;;5042541;28;21358;-69
2022/05/20 13:17:26;;;;;;;25.50;19.37;;;20.10;99.90;;;;;;5069796;28;20459;-68
2022/05/20 13:19:55;;;;;;;18.97;17.17;;;20.50;99.90;;;;;;5072575;28;20825;-68
2022/05/20 13:22:24;;;;;;;28.77;16.93;;;20.80;99.90;;;;;;5047723;28;21117;-68
2022/05/20 13:24:57;;;;;;;782.13;108.70;;;21.20;99.90;;;;;;5037274;28;20463;-68